Time;durP1;ratioP1;P1;durP2;ratioP2;P2;SDS_P1;SDS_P2;PMS_P1;PMS_P2;Temp;Humidity;BMP_temperature;BMP_pressure;BME280_temperature;BME280_humidity;BME280_pressure;Samples;Min_cycle;Max_cycle;Signal;HPM_P1;HPM_P2
2021/08/09 00:00:30;;;;;;;15.15;4.50;;;;;;;14.80;87.53;101395.59;4982180;28;20114;-75
2021/08/09 00:02:57;;;;;;;16.25;5.45;;;;;;;14.87;87.31;101397.06;4982244;28;20062;-73
2021/08/09 00:05:25;;;;;;;10.90;4.05;;;;;;;14.88;87.42;101393.47;4982701;28;20441;-73
2021/08/09 00:07:54;;;;;;;14.25;4.32;;;;;;;14.89;87.40;101403.25;4983156;28;20074;-73
2021/08/09 00:10:22;;;;;;;15.57;4.50;;;;;;;14.81;87.94;101405.38;4982640;28;20117;-73
2021/08/09 00:12:50;;;;;;;19.33;4.68;;;;;;;14.76;88.17;101404.69;4982853;28;20074;-73
2021/08/09 00:15:20;;;;;;;19.70;5.25;;;;;;;14.80;88.21;101405.47;4981148;28;20062;-73
2021/08/09 00:17:48;;;;;;;19.48;4.68;;;;;;;14.81;88.24;101397.31;4981763;28;20078;-72
2021/08/09 00:20:16;;;;;;;17.85;5.03;;;;;;;14.75;88.22;101405.66;4982925;28;20092;-73
2021/08/09 00:22:45;;;;;;;19.27;5.43;;;;;;;14.69;88.57;101408.56;4979697;28;20427;-73
2021/08/09 00:25:15;;;;;;;16.17;4.57;;;;;;;14.67;88.52;101403.25;4982381;28;20292;-73
2021/08/09 00:27:43;;;;;;;16.58;4.95;;;;;;;14.64;88.73;101410.56;4979837;28;20093;-72
2021/08/09 00:30:12;;;;;;;12.68;4.35;;;;;;;14.59;89.22;101407.19;4980687;28;20058;-73
2021/08/09 00:32:40;;;;;;;13.90;4.80;;;;;;;14.62;89.18;101415.13;4982816;28;20124;-73
2021/08/09 00:35:09;;;;;;;16.42;4.88;;;;;;;14.66;89.38;101408.69;4978153;28;20336;-68
2021/08/09 00:37:37;;;;;;;14.40;4.63;;;;;;;14.77;88.83;101409.13;4984093;28;20062;-69
2021/08/09 00:40:06;;;;;;;15.60;5.40;;;;;;;14.78;88.44;101410.00;4980739;28;20070;-69
2021/08/09 00:42:35;;;;;;;17.55;5.35;;;;;;;14.80;88.67;101416.22;4981887;28;20066;-69
2021/08/09 00:45:03;;;;;;;16.13;4.47;;;;;;;14.76;89.03;101407.38;4981022;28;20381;-69
2021/08/09 00:47:31;;;;;;;19.48;4.90;;;;;;;14.80;88.66;101400.09;4980359;28;20072;-69
2021/08/09 00:50:00;;;;;;;17.88;4.90;;;;;;;14.76;88.58;101407.38;4983464;28;20108;-69
2021/08/09 00:52:29;;;;;;;15.23;4.72;;;;;;;14.72;88.80;101408.44;4980320;28;20608;-74
2021/08/09 00:54:57;;;;;;;19.30;5.53;;;;;;;14.70;88.80;101407.63;4983347;28;20069;-74
2021/08/09 00:57:25;;;;;;;14.10;4.30;;;;;;;14.65;89.09;101404.25;4981717;28;20066;-73
2021/08/09 00:59:54;;;;;;;17.00;4.88;;;;;;;14.62;89.08;101407.06;4980568;28;20395;-74
2021/08/09 01:02:22;;;;;;;17.85;5.82;;;;;;;14.57;89.15;101410.78;4981352;28;20488;-73
2021/08/09 01:04:50;;;;;;;18.23;5.75;;;;;;;14.56;89.25;101413.53;4981217;28;20070;-74
2021/08/09 01:07:19;;;;;;;17.58;4.97;;;;;;;14.53;89.42;101417.19;4977494;28;20730;-74
2021/08/09 01:09:52;;;;;;;18.10;4.70;;;;;;;14.48;89.77;101411.13;4980041;28;20476;-74
2021/08/09 01:12:29;;;;;;;17.73;4.45;;;;;;;14.53;89.26;101414.50;4981697;28;20173;-72
2021/08/09 01:15:08;;;;;;;17.33;4.53;;;;;;;14.53;89.52;101414.50;4985957;28;20066;-68
2021/08/09 01:17:40;;;;;;;14.50;4.03;;;;;;;14.50;90.10;101416.44;4979952;28;20070;-68
2021/08/09 01:20:20;;;;;;;18.50;4.32;;;;;;;14.52;89.80;101414.56;4981193;28;20089;-68
2021/08/09 01:23:00;;;;;;;12.38;3.92;;;;;;;14.48;89.97;101418.31;4977824;28;20074;-68
2021/08/09 01:25:36;;;;;;;18.83;4.75;;;;;;;14.49;90.10;101426.31;4977930;28;20062;-68
2021/08/09 01:28:09;;;;;;;18.42;4.85;;;;;;;14.44;89.92;101417.56;4978853;28;20420;-68
2021/08/09 01:30:38;;;;;;;18.95;5.07;;;;;;;14.44;90.06;101424.72;4981244;28;20249;-74
2021/08/09 01:33:09;;;;;;;15.10;4.00;;;;;;;14.45;89.77;101431.88;4979443;28;20412;-73
2021/08/09 01:35:38;;;;;;;20.90;4.95;;;;;;;14.43;90.07;101429.25;4978640;28;20397;-73
2021/08/09 01:38:06;;;;;;;15.65;4.50;;;;;;;14.39;90.09;101433.84;4980108;28;20066;-73
2021/08/09 01:40:36;;;;;;;13.88;4.40;;;;;;;14.42;89.56;101430.19;4976825;28;20142;-73
2021/08/09 01:43:06;;;;;;;13.65;4.07;;;;;;;14.39;89.50;101433.84;4981010;28;20069;-73
2021/08/09 01:45:35;;;;;;;21.75;4.82;;;;;;;14.36;89.40;101430.41;4983071;28;20349;-73
2021/08/09 01:48:03;;;;;;;14.57;3.60;;;;;;;14.34;89.65;101432.28;4980062;28;20066;-74
2021/08/09 01:50:31;;;;;;;16.65;4.25;;;;;;;14.30;89.72;101434.22;4983246;28;20601;-74
2021/08/09 01:52:59;;;;;;;16.38;4.68;;;;;;;14.27;90.05;101439.69;4977615;28;20148;-73
2021/08/09 01:55:27;;;;;;;16.13;4.75;;;;;;;14.29;90.01;101432.47;4980091;28;20062;-73
2021/08/09 01:57:55;;;;;;;11.75;3.80;;;;;;;14.25;89.89;101440.69;4981994;28;20062;-73
2021/08/09 02:00:24;;;;;;;19.80;5.22;;;;;;;14.23;90.25;101439.88;4977700;28;20154;-74
2021/08/09 02:02:54;;;;;;;15.02;3.90;;;;;;;14.19;90.39;101448.03;4987055;28;20069;-70
2021/08/09 02:05:23;;;;;;;16.85;4.13;;;;;;;14.17;90.06;101444.53;4979121;28;20054;-68
2021/08/09 02:07:52;;;;;;;14.63;4.60;;;;;;;14.20;89.70;101441.75;4979359;28;20100;-68
2021/08/09 02:10:22;;;;;;;14.50;4.25;;;;;;;14.25;89.69;101454.09;4982486;28;20093;-68
2021/08/09 02:12:56;;;;;;;17.33;4.53;;;;;;;14.22;89.63;101451.53;4981061;28;20415;-69
2021/08/09 02:15:31;;;;;;;15.18;4.40;;;;;;;14.19;90.03;101449.84;4980251;28;20070;-68
2021/08/09 02:18:07;;;;;;;14.15;3.92;;;;;;;14.25;89.59;101446.94;4984382;28;20112;-68
2021/08/09 02:20:39;;;;;;;17.55;4.43;;;;;;;14.17;90.26;101447.22;4988770;28;20416;-68
2021/08/09 02:23:11;;;;;;;15.20;5.00;;;;;;;14.16;90.40;101448.13;4985063;28;20058;-69
2021/08/09 02:25:40;;;;;;;13.65;4.28;;;;;;;14.17;89.95;101449.91;4988149;28;20073;-69
2021/08/09 02:28:14;;;;;;;17.60;4.53;;;;;;;14.13;90.50;101453.66;4986242;28;20171;-72
2021/08/09 02:30:46;;;;;;;18.08;4.68;;;;;;;14.11;90.66;101447.44;4985127;28;20066;-73
2021/08/09 02:33:15;;;;;;;14.40;3.70;;;;;;;14.08;90.69;101449.34;4988283;28;20321;-74
2021/08/09 02:35:45;;;;;;;22.48;4.57;;;;;;;14.06;91.20;101457.47;4986366;28;20058;-73
2021/08/09 02:38:14;;;;;;;13.02;4.47;;;;;;;14.06;91.01;101453.91;4987172;28;20066;-72
2021/08/09 02:40:43;;;;;;;12.88;5.25;;;;;;;14.05;91.09;101453.03;4988445;28;20050;-72
2021/08/09 02:43:12;;;;;;;14.05;3.78;;;;;;;14.01;91.34;101452.28;4985820;28;20097;-72
2021/08/09 02:45:41;;;;;;;12.25;3.92;;;;;;;14.03;91.66;101454.91;4985370;28;20090;-73
2021/08/09 02:48:11;;;;;;;14.27;5.03;;;;;;;14.02;91.60;101445.97;4984636;28;20153;-72
2021/08/09 02:50:40;;;;;;;13.93;4.22;;;;;;;14.04;91.25;101453.09;4989298;28;20109;-72
2021/08/09 02:53:11;;;;;;;14.98;3.55;;;;;;;14.05;91.51;101447.69;4985666;28;20070;-75
2021/08/09 02:55:39;;;;;;;11.65;3.67;;;;;;;14.08;91.66;101462.78;4984823;28;20298;-73
2021/08/09 02:58:07;;;;;;;20.70;5.32;;;;;;;14.13;91.29;101452.75;4986574;28;20404;-74
2021/08/09 03:00:37;;;;;;;17.33;4.63;;;;;;;14.09;91.35;101448.44;4987967;28;20089;-73
2021/08/09 03:03:06;;;;;;;15.63;4.32;;;;;;;14.10;91.39;101452.88;4984608;28;20062;-73
2021/08/09 03:05:36;;;;;;;14.40;4.25;;;;;;;14.07;91.55;101445.81;4989861;28;20069;-75
2021/08/09 03:08:05;;;;;;;13.73;4.05;;;;;;;14.07;91.65;101444.94;4985431;28;20109;-74
2021/08/09 03:10:33;;;;;;;13.35;4.65;;;;;;;14.05;91.96;101453.03;4986234;28;20070;-75
2021/08/09 03:13:01;;;;;;;16.85;5.05;;;;;;;14.05;91.91;101446.81;4985300;28;20151;-73
2021/08/09 03:15:31;;;;;;;16.83;4.78;;;;;;;14.02;92.50;101454.03;4987105;28;20430;-73
2021/08/09 03:18:00;;;;;;;18.35;5.30;;;;;;;14.05;92.17;101446.81;4987787;28;20356;-73
2021/08/09 03:20:28;;;;;;;21.45;4.35;;;;;;;14.05;92.36;101461.09;4988610;28;20070;-73
2021/08/09 03:22:58;;;;;;;15.48;4.40;;;;;;;14.04;92.54;101458.47;4984724;28;20105;-73
2021/08/09 03:25:25;;;;;;;19.60;4.55;;;;;;;14.05;92.69;101457.53;4984041;28;20065;-73
2021/08/09 03:27:54;;;;;;;15.45;4.40;;;;;;;14.02;92.69;101461.19;4985576;28;20477;-73
2021/08/09 03:30:22;;;;;;;16.88;5.22;;;;;;;14.01;92.70;101459.44;4983456;28;20062;-68
2021/08/09 03:32:50;;;;;;;15.43;4.72;;;;;;;14.02;92.59;101462.06;4980921;28;20096;-69
2021/08/09 03:35:18;;;;;;;16.65;5.97;;;;;;;14.06;92.49;101459.28;4981992;28;20457;-68
2021/08/09 03:37:46;;;;;;;17.80;4.80;;;;;;;14.05;92.52;101453.03;4982259;28;20127;-68
2021/08/09 03:40:15;;;;;;;14.10;4.72;;;;;;;14.02;92.61;101455.84;4982942;28;20053;-69
2021/08/09 03:42:49;;;;;;;13.30;3.80;;;;;;;14.02;92.78;101456.69;4983307;28;20070;-69
2021/08/09 03:45:17;;;;;;;16.45;4.32;;;;;;;14.00;92.95;101453.19;4984960;28;20153;-69
2021/08/09 03:47:45;;;;;;;17.88;4.85;;;;;;;14.02;92.86;101459.38;4982379;28;20054;-69
2021/08/09 03:50:13;;;;;;;18.13;4.72;;;;;;;14.00;93.03;101458.56;4981042;28;20047;-69
2021/08/09 03:52:46;;;;;;;16.73;4.45;;;;;;;14.02;93.05;101464.75;4982120;28;20497;-68
2021/08/09 03:55:16;;;;;;;16.52;4.63;;;;;;;14.04;92.56;101459.34;4982352;28;20371;-68
2021/08/09 03:57:44;;;;;;;11.88;3.75;;;;;;;14.01;92.54;101459.44;4981500;28;20057;-68
2021/08/09 04:00:13;;;;;;;14.00;4.60;;;;;;;14.02;92.71;101464.75;4981795;28;20054;-69
2021/08/09 04:02:41;;;;;;;13.15;4.35;;;;;;;13.98;93.18;101464.94;4982152;28;20069;-69
2021/08/09 04:05:13;;;;;;;14.35;4.90;;;;;;;13.99;93.22;101464.00;4984609;28;20074;-69
2021/08/09 04:07:41;;;;;;;14.15;4.43;;;;;;;13.98;93.04;101468.50;4981273;28;20070;-69
2021/08/09 04:10:09;;;;;;;13.10;3.67;;;;;;;13.97;93.03;101465.84;4982342;28;20050;-69
2021/08/09 04:12:38;;;;;;;16.45;4.60;;;;;;;13.95;93.31;101476.66;4983095;28;20070;-69
2021/08/09 04:15:08;;;;;;;20.75;5.03;;;;;;;13.99;93.38;101477.41;4981860;28;20438;-68
2021/08/09 04:17:35;;;;;;;14.52;4.00;;;;;;;13.95;93.30;101481.16;4982190;28;20069;-69
2021/08/09 04:20:04;;;;;;;17.95;4.68;;;;;;;13.95;93.43;101481.16;4981634;28;20410;-69
2021/08/09 04:22:32;;;;;;;15.68;5.25;;;;;;;13.95;93.23;101482.00;4983045;28;20064;-73
2021/08/09 04:25:01;;;;;;;14.10;3.67;;;;;;;13.90;93.35;101480.44;4983100;28;20097;-69
2021/08/09 04:27:29;;;;;;;16.85;4.88;;;;;;;13.96;93.35;101488.25;4983014;28;20112;-69
2021/08/09 04:29:58;;;;;;;13.52;3.70;;;;;;;13.93;93.32;101485.69;4981293;28;20424;-69
2021/08/09 04:32:26;;;;;;;14.48;3.78;;;;;;;13.92;93.25;101478.56;4981389;28;20066;-69
2021/08/09 04:34:53;;;;;;;13.73;4.15;;;;;;;13.92;93.51;101486.63;4980758;28;20124;-72
2021/08/09 04:37:23;;;;;;;17.05;5.13;;;;;;;13.91;93.46;101488.44;4981326;28;20532;-73
2021/08/09 04:39:50;;;;;;;14.05;3.70;;;;;;;13.89;93.87;101490.25;4983678;28;20066;-73
2021/08/09 04:42:18;;;;;;;14.75;4.95;;;;;;;13.93;93.61;101485.69;4979993;28;20077;-73
2021/08/09 04:44:46;;;;;;;11.68;3.50;;;;;;;13.95;93.43;101489.19;4983115;28;20436;-73
2021/08/09 04:47:15;;;;;;;17.15;4.20;;;;;;;13.98;93.28;101489.09;4981287;28;20074;-73
2021/08/09 04:49:43;;;;;;;13.05;3.80;;;;;;;13.99;92.79;101488.13;4982309;28;20065;-69
2021/08/09 04:52:11;;;;;;;12.82;4.70;;;;;;;13.98;92.46;101489.97;4981462;28;20328;-69
2021/08/09 04:54:39;;;;;;;14.55;3.65;;;;;;;13.99;92.26;101497.06;4981364;28;20074;-69
2021/08/09 04:57:07;;;;;;;16.27;4.05;;;;;;;14.00;92.10;101506.00;4979611;28;20098;-69
2021/08/09 04:59:35;;;;;;;11.48;3.15;;;;;;;14.06;92.06;101497.72;4981469;28;20065;-69
2021/08/09 05:02:03;;;;;;;9.77;3.63;;;;;;;14.04;92.03;101499.56;4979517;28;20323;-69
2021/08/09 05:04:32;;;;;;;15.02;3.78;;;;;;;14.06;91.80;101499.53;4982914;28;20062;-68
2021/08/09 05:07:02;;;;;;;12.20;3.70;;;;;;;14.05;91.71;101489.75;4981016;28;20061;-70
2021/08/09 05:09:32;;;;;;;18.45;3.63;;;;;;;14.07;92.17;101488.75;4978625;28;20065;-74
2021/08/09 05:12:00;;;;;;;14.35;3.53;;;;;;;14.07;92.10;101495.94;4981761;28;20116;-74
2021/08/09 05:14:28;;;;;;;12.25;3.03;;;;;;;14.13;92.08;101483.16;4982262;28;20072;-74
2021/08/09 05:16:56;;;;;;;12.43;3.65;;;;;;;14.16;91.70;101477.66;4982616;28;20074;-74
2021/08/09 05:19:24;;;;;;;13.10;3.50;;;;;;;14.22;91.72;101486.41;4979984;28;20050;-74
2021/08/09 05:21:53;;;;;;;10.48;3.53;;;;;;;14.26;91.59;101483.56;4982526;28;20133;-74
2021/08/09 05:24:22;;;;;;;12.55;3.55;;;;;;;14.31;91.48;101486.09;4980844;28;20077;-70
2021/08/09 05:26:49;;;;;;;14.68;3.65;;;;;;;14.35;91.39;101482.34;4981875;28;20599;-68
2021/08/09 05:29:17;;;;;;;11.10;3.45;;;;;;;14.36;91.82;101482.28;4981989;28;20058;-68
2021/08/09 05:31:45;;;;;;;13.70;3.40;;;;;;;14.48;91.29;101478.25;4978869;28;20149;-73
2021/08/09 05:34:13;;;;;;;16.92;3.28;;;;;;;14.70;90.57;101478.34;4979472;28;20061;-73
2021/08/09 05:36:43;;;;;;;12.18;3.15;;;;;;;14.82;89.72;101495.78;4979986;28;20066;-73
2021/08/09 05:39:12;;;;;;;9.43;3.08;;;;;;;14.93;88.82;101493.56;4983906;28;20140;-73
2021/08/09 05:41:39;;;;;;;13.85;3.47;;;;;;;14.97;88.75;101494.31;4979089;28;20066;-73
2021/08/09 05:44:07;;;;;;;13.30;3.20;;;;;;;15.06;87.94;101501.13;4980752;28;20073;-75
2021/08/09 05:46:35;;;;;;;13.82;3.45;;;;;;;15.32;87.66;101500.94;4981827;28;20184;-73
2021/08/09 05:49:04;;;;;;;11.73;3.53;;;;;;;15.39;86.94;101501.56;4979747;28;20070;-75
2021/08/09 05:51:35;;;;;;;8.32;2.83;;;;;;;15.41;86.53;101505.06;4982095;28;20070;-68
2021/08/09 05:54:02;;;;;;;13.43;3.45;;;;;;;15.56;85.43;101508.03;4979807;28;20069;-68
2021/08/09 05:56:31;;;;;;;17.50;3.25;;;;;;;15.73;84.61;101504.63;4982318;28;20112;-71
2021/08/09 05:58:59;;;;;;;14.02;3.03;;;;;;;15.71;84.60;101504.69;4978095;28;20121;-70
2021/08/09 06:01:27;;;;;;;13.75;3.50;;;;;;;15.69;84.70;101507.44;4979577;28;20070;-70
2021/08/09 06:03:55;;;;;;;13.20;3.40;;;;;;;15.80;83.26;101500.75;4981184;28;20399;-72
2021/08/09 06:06:23;;;;;;;12.80;3.20;;;;;;;16.10;83.40;101508.44;4977786;28;20078;-73
2021/08/09 06:08:50;;;;;;;15.73;3.40;;;;;;;15.87;83.27;101510.34;4979738;28;20477;-73
2021/08/09 06:11:21;;;;;;;10.00;3.20;;;;;;;15.67;84.29;101509.31;4976753;28;20350;-74
2021/08/09 06:13:50;;;;;;;12.32;3.05;;;;;;;15.97;83.76;101500.91;4980342;28;20425;-75
2021/08/09 06:16:19;;;;;;;10.65;3.28;;;;;;;15.80;83.65;101504.34;4975540;28;20160;-75
2021/08/09 06:18:47;;;;;;;10.52;3.15;;;;;;;15.71;84.00;101509.19;4980535;28;20330;-73
2021/08/09 06:21:14;;;;;;;9.85;3.33;;;;;;;15.64;84.39;101508.59;4980422;28;20050;-73
2021/08/09 06:23:42;;;;;;;12.93;3.58;;;;;;;15.91;82.84;101506.56;4975092;28;20074;-73
2021/08/09 06:26:10;;;;;;;18.85;4.20;;;;;;;16.27;82.00;101499.59;4980237;28;20078;-73
2021/08/09 06:28:38;;;;;;;11.63;3.20;;;;;;;16.37;81.45;101499.09;4982417;28;20108;-69
2021/08/09 06:31:07;;;;;;;12.82;3.03;;;;;;;16.75;79.92;101509.03;4978960;28;20125;-69
2021/08/09 06:33:34;;;;;;;8.68;3.13;;;;;;;16.95;79.78;101510.81;4981040;28;20465;-69
2021/08/09 06:36:02;;;;;;;7.65;3.47;;;;;;;16.88;79.10;101499.44;4977306;28;20069;-69
2021/08/09 06:38:30;;;;;;;10.82;3.55;;;;;;;17.38;79.05;101514.09;4980684;28;20081;-69
2021/08/09 06:40:58;;;;;;;10.15;2.90;;;;;;;17.18;78.50;101512.41;4980205;28;21477;-69
2021/08/09 06:43:25;;;;;;;12.23;3.35;;;;;;;17.39;78.32;101505.06;4979213;28;20556;-69
2021/08/09 06:45:54;;;;;;;10.02;3.03;;;;;;;17.47;76.86;101510.06;4979886;28;20070;-69
2021/08/09 06:48:25;;;;;;;8.93;2.65;;;;;;;17.66;75.91;101505.47;4979606;28;20070;-69
2021/08/09 06:50:53;;;;;;;15.10;4.20;;;;;;;17.44;76.73;101508.41;4980011;28;20078;-69
2021/08/09 06:53:21;;;;;;;11.10;3.65;;;;;;;17.35;77.39;101517.81;4980058;28;20062;-73
2021/08/09 06:55:49;;;;;;;9.30;3.17;;;;;;;16.92;77.66;101521.72;4980769;28;20150;-73
2021/08/09 06:58:16;;;;;;;10.80;3.15;;;;;;;16.97;78.34;101514.31;4980959;28;20066;-73
2021/08/09 07:00:44;;;;;;;10.15;2.97;;;;;;;16.71;78.36;101516.38;4978419;28;20070;-74
2021/08/09 07:03:12;;;;;;;11.18;3.13;;;;;;;16.65;79.27;101516.66;4980575;28;20121;-73
2021/08/09 07:05:43;;;;;;;10.45;3.30;;;;;;;16.48;79.94;101514.78;4982638;28;20062;-73
2021/08/09 07:08:11;;;;;;;8.55;3.08;;;;;;;16.57;80.17;101518.88;4982539;28;20583;-73
2021/08/09 07:10:40;;;;;;;11.88;3.58;;;;;;;16.46;80.30;101513.97;4984420;28;20066;-74
2021/08/09 07:13:09;;;;;;;11.68;3.25;;;;;;;16.36;81.93;101524.31;4982275;28;20875;-74
2021/08/09 07:15:37;;;;;;;10.45;3.05;;;;;;;16.33;82.72;101513.66;4982309;28;20330;-75
2021/08/09 07:18:04;;;;;;;13.07;4.18;;;;;;;16.32;84.08;101522.66;4984291;28;20465;-70
2021/08/09 07:20:32;;;;;;;9.85;3.05;;;;;;;16.27;84.44;101526.53;4982551;28;20069;-68
2021/08/09 07:23:02;;;;;;;13.02;2.90;;;;;;;16.60;84.24;101519.59;4985617;28;20068;-68
2021/08/09 07:25:30;;;;;;;14.73;3.28;;;;;;;16.56;83.08;101517.09;4982760;28;20117;-68
2021/08/09 07:27:57;;;;;;;10.05;2.97;;;;;;;16.74;81.83;101520.78;4984394;28;20439;-68
2021/08/09 07:30:25;;;;;;;10.50;3.30;;;;;;;16.48;82.01;101520.16;4981119;28;20098;-68
2021/08/09 07:32:53;;;;;;;8.48;3.10;;;;;;;16.48;82.60;101519.28;4983412;28;20393;-68
2021/08/09 07:35:21;;;;;;;10.52;3.28;;;;;;;16.40;81.35;101520.50;4983307;28;20156;-70
2021/08/09 07:37:48;;;;;;;9.43;2.60;;;;;;;16.50;81.23;101512.00;4981229;28;20081;-68
2021/08/09 07:40:18;;;;;;;8.82;3.13;;;;;;;16.48;80.04;101513.88;4983599;28;20145;-69
2021/08/09 07:42:50;;;;;;;8.57;3.03;;;;;;;16.70;80.68;101517.34;4982855;28;20074;-69
2021/08/09 07:45:18;;;;;;;12.55;2.95;;;;;;;16.78;80.08;101517.84;4983392;28;20065;-69
2021/08/09 07:47:51;;;;;;;8.50;3.10;;;;;;;16.63;80.49;101526.66;4983165;28;20066;-69
2021/08/09 07:50:19;;;;;;;;;;;;;;;16.81;79.74;101517.69;4983057;28;20062;-69
2021/08/09 07:52:47;;;;;;;10.10;3.78;;;;;;;16.64;79.79;101514.06;4984106;28;19951;-69
2021/08/09 07:55:15;;;;;;;10.73;3.40;;;;;;;16.80;80.55;101523.16;4983228;28;20490;-68
2021/08/09 07:57:44;;;;;;;12.27;3.20;;;;;;;16.73;79.84;101516.31;4982804;28;20116;-68
2021/08/09 08:00:14;;;;;;;11.55;3.20;;;;;;;16.93;80.02;101513.59;4982114;28;20519;-69
2021/08/09 08:02:42;;;;;;;9.52;3.25;;;;;;;17.28;78.26;101511.00;4980700;28;20066;-75
2021/08/09 08:05:11;;;;;;;15.00;3.58;;;;;;;17.45;77.44;101511.97;4983327;28;20442;-73
2021/08/09 08:07:38;;;;;;;14.77;3.58;;;;;;;17.45;77.41;101517.34;4983838;28;20245;-73
2021/08/09 08:10:07;;;;;;;8.10;2.85;;;;;;;17.81;77.12;101508.31;4981681;28;20184;-74
2021/08/09 08:12:35;;;;;;;9.35;3.20;;;;;;;17.82;76.33;101504.69;4982007;28;20400;-73
2021/08/09 08:15:05;;;;;;;8.27;3.00;;;;;;;17.65;75.94;101506.41;4982017;28;20445;-73
2021/08/09 08:17:33;;;;;;;8.55;3.55;;;;;;;17.62;75.19;101512.00;4981443;28;20398;-74
2021/08/09 08:20:02;;;;;;;7.65;2.90;;;;;;;17.71;74.99;101497.16;4982232;28;20062;-73
2021/08/09 08:22:30;;;;;;;9.27;3.03;;;;;;;17.66;75.56;101508.19;4982203;28;20503;-73
2021/08/09 08:24:58;;;;;;;15.52;5.38;;;;;;;17.63;75.10;101510.16;4982640;28;20089;-73
2021/08/09 08:27:26;;;;;;;9.63;3.10;;;;;;;17.64;75.18;101506.50;4980181;28;20617;-73
2021/08/09 08:29:53;;;;;;;8.05;2.80;;;;;;;17.23;75.41;101507.66;4981002;28;20117;-73
2021/08/09 08:32:23;;;;;;;7.88;2.83;;;;;;;17.42;75.07;101510.31;4980444;28;20080;-73
2021/08/09 08:34:51;;;;;;;6.85;3.05;;;;;;;17.48;74.84;101507.28;4979230;28;20077;-73
2021/08/09 08:37:19;;;;;;;11.32;3.92;;;;;;;17.40;75.59;101504.13;4981727;28;20066;-73
2021/08/09 08:39:47;;;;;;;9.63;2.90;;;;;;;17.46;75.93;101508.31;4980832;28;20062;-73
2021/08/09 08:42:15;;;;;;;9.98;3.15;;;;;;;17.39;76.05;101507.75;4981476;28;20117;-73
2021/08/09 08:44:44;;;;;;;11.48;3.17;;;;;;;17.50;76.21;101516.19;4981859;28;20070;-73
2021/08/09 08:47:13;;;;;;;9.20;2.70;;;;;;;17.59;75.48;101509.44;4980555;28;20560;-68
2021/08/09 08:49:44;;;;;;;7.68;2.72;;;;;;;17.62;75.33;101512.00;4981168;28;20105;-68
2021/08/09 08:52:12;;;;;;;7.40;2.80;;;;;;;17.48;74.85;101518.06;4980584;28;20460;-68
2021/08/09 08:54:40;;;;;;;7.97;2.97;;;;;;;17.61;74.83;101521.03;4981130;28;20070;-68
2021/08/09 08:57:16;;;;;;;5.90;2.83;;;;;;;17.65;75.50;101525.31;4982026;28;20050;-68
2021/08/09 08:59:45;;;;;;;13.55;3.30;;;;;;;17.46;75.82;101519.97;4982274;28;20054;-68
2021/08/09 09:02:31;;;;;;;13.55;3.28;;;;;;;17.45;75.95;101529.03;4978571;28;20128;-70
2021/08/09 09:05:17;;;;;;;9.75;3.05;;;;;;;17.56;75.52;101523.09;4980496;28;20433;-70
2021/08/09 09:07:46;;;;;;;10.18;3.00;;;;;;;17.66;75.11;101528.91;4977095;28;21165;-68
2021/08/09 09:10:26;;;;;;;11.20;3.22;;;;;;;17.67;75.73;101536.03;4979435;28;20065;-68
2021/08/09 09:13:09;;;;;;;7.22;2.75;;;;;;;17.67;75.85;101530.63;4978791;28;20492;-69
2021/08/09 09:15:57;;;;;;;8.02;2.95;;;;;;;17.65;75.25;101540.63;4981187;28;20084;-68
2021/08/09 09:18:27;;;;;;;7.72;3.17;;;;;;;17.55;75.18;101533.03;4980996;28;20073;-73
2021/08/09 09:20:56;;;;;;;7.85;3.28;;;;;;;17.47;75.28;101534.34;4978920;28;20425;-75
2021/08/09 09:23:24;;;;;;;6.95;2.88;;;;;;;17.51;74.98;101528.72;4983372;28;20058;-74
2021/08/09 09:25:53;;;;;;;7.65;3.22;;;;;;;17.60;75.33;101521.13;4982194;28;20058;-73
2021/08/09 09:28:21;;;;;;;9.75;3.38;;;;;;;17.63;75.59;101527.22;4978944;28;20110;-75
2021/08/09 09:30:50;;;;;;;7.18;2.85;;;;;;;17.69;75.71;101523.31;4980746;28;20070;-69
2021/08/09 09:33:18;;;;;;;8.52;2.88;;;;;;;17.72;75.87;101533.97;4979873;28;20042;-74
2021/08/09 09:35:50;;;;;;;15.13;3.63;;;;;;;17.81;76.33;101533.50;4984580;28;20045;-73
2021/08/09 09:38:19;;;;;;;5.97;3.05;;;;;;;17.78;75.66;101530.97;4981154;28;20051;-74
2021/08/09 09:40:47;;;;;;;9.23;3.28;;;;;;;17.87;74.87;101530.50;4978562;28;20268;-74
2021/08/09 09:43:17;;;;;;;11.80;2.80;;;;;;;17.90;75.01;101533.06;4979837;28;20062;-70
2021/08/09 09:45:56;;;;;;;8.23;2.88;;;;;;;18.24;73.97;101527.72;4980240;28;20368;-71
2021/08/09 09:48:35;;;;;;;7.72;3.15;;;;;;;18.41;73.27;101527.69;4979618;28;20311;-70
2021/08/09 09:51:11;;;;;;;7.20;3.05;;;;;;;18.81;72.02;101516.50;4979532;28;21340;-74
2021/08/09 09:53:42;;;;;;;10.10;3.20;;;;;;;18.73;72.70;101511.53;4979733;28;20074;-74
2021/08/09 09:56:13;;;;;;;6.78;3.20;;;;;;;18.52;73.96;101521.69;4981265;28;20137;-75
2021/08/09 09:58:41;;;;;;;5.50;2.88;;;;;;;18.42;73.38;101520.44;4979179;28;20053;-70
2021/08/09 10:01:10;;;;;;;7.15;3.25;;;;;;;18.37;74.07;101534.22;4979376;28;20073;-74
2021/08/09 10:03:41;;;;;;;7.78;3.03;;;;;;;18.15;74.30;101533.59;4979503;28;20151;-74
2021/08/09 10:06:10;;;;;;;8.77;3.20;;;;;;;18.39;74.99;101529.59;4982607;28;20066;-70
2021/08/09 10:08:44;;;;;;;8.52;3.70;;;;;;;18.67;75.38;101523.53;4980078;28;20069;-69
2021/08/09 10:11:12;;;;;;;8.70;3.15;;;;;;;18.70;76.35;101532.47;4979777;28;20413;-69
2021/08/09 10:13:42;;;;;;;9.88;3.58;;;;;;;18.56;75.13;101533.19;4979392;28;20073;-69
2021/08/09 10:16:11;;;;;;;6.70;3.35;;;;;;;18.65;74.29;101533.56;4981228;28;20359;-69
2021/08/09 10:18:43;;;;;;;9.30;4.05;;;;;;;18.41;73.03;101527.69;4979786;28;20042;-69
2021/08/09 10:21:11;;;;;;;7.20;3.13;;;;;;;18.76;72.48;101524.00;4978927;28;20054;-69
2021/08/09 10:23:43;;;;;;;10.48;3.30;;;;;;;18.66;72.08;101524.53;4978278;28;20066;-70
2021/08/09 10:26:13;;;;;;;9.02;3.53;;;;;;;18.66;72.98;101529.91;4977996;28;20062;-69
2021/08/09 10:29:06;;;;;;;9.25;3.47;;;;;;;18.52;71.82;101528.94;4979331;28;20479;-74
2021/08/09 10:31:36;;;;;;;8.98;3.33;;;;;;;18.59;70.66;101530.31;4972779;28;20082;-75
2021/08/09 10:34:07;;;;;;;8.05;4.07;;;;;;;18.62;71.57;101527.47;4977586;28;20201;-70
2021/08/09 10:37:12;;;;;;;7.90;3.22;;;;;;;18.98;70.81;101532.66;4977726;28;20501;-69
2021/08/09 10:39:56;;;;;;;9.18;3.55;;;;;;;18.96;70.07;101528.31;4983697;28;20172;-68
2021/08/09 10:42:39;;;;;;;7.50;3.72;;;;;;;19.36;70.21;101520.63;4982416;28;20121;-76
2021/08/09 10:45:09;;;;;;;9.77;3.60;;;;;;;19.03;69.03;101522.50;4980513;28;20069;-74
2021/08/09 10:47:54;;;;;;;11.27;3.65;;;;;;;19.51;70.69;101516.13;4981637;28;20465;-75
2021/08/09 10:50:48;;;;;;;7.63;3.10;;;;;;;19.87;68.54;101499.56;4982884;28;20140;-74
2021/08/09 10:53:42;;;;;;;7.85;3.40;;;;;;;19.54;67.19;101515.97;4980776;28;20358;-76
2021/08/09 10:56:45;;;;;;;10.10;3.63;;;;;;;19.65;67.85;101523.44;4980759;28;20070;-71
2021/08/09 10:59:41;;;;;;;6.95;3.40;;;;;;;19.40;68.60;101519.50;4985017;28;20066;-68
2021/08/09 11:02:22;;;;;;;5.82;2.80;;;;;;;19.25;68.39;101517.66;4983379;28;20062;-77
2021/08/09 11:05:27;;;;;;;6.82;3.35;;;;;;;18.84;69.77;101509.13;4985651;28;20062;-75
2021/08/09 11:08:33;;;;;;;6.68;3.38;;;;;;;18.40;70.54;101516.94;4981936;28;20066;-69
2021/08/09 11:11:06;;;;;;;10.52;3.60;;;;;;;18.27;71.40;101528.44;4983963;28;20062;-69
2021/08/09 11:14:14;;;;;;;7.22;3.42;;;;;;;18.33;72.42;101534.47;4981538;28;20081;-69
2021/08/09 11:16:43;;;;;;;7.00;3.35;;;;;;;18.64;71.80;101529.13;4983371;28;20149;-70
2021/08/09 11:19:20;;;;;;;6.38;2.65;;;;;;;18.98;69.52;101529.97;4981576;28;20066;-69
2021/08/09 11:21:50;;;;;;;7.10;3.08;;;;;;;18.87;68.05;101531.56;4984198;28;20062;-70
2021/08/09 11:24:35;;;;;;;7.75;2.60;;;;;;;19.24;67.34;101535.75;4981050;28;20066;-70
2021/08/09 11:27:05;;;;;;;5.13;2.60;;;;;;;19.04;64.71;101537.75;4983298;28;20422;-70
2021/08/09 11:29:53;;;;;;;4.70;2.75;;;;;;;19.57;65.01;101538.31;4981004;28;20066;-71
2021/08/09 11:32:38;;;;;;;7.20;2.97;;;;;;;19.80;63.85;101538.78;4982543;28;20058;-77
2021/08/09 11:35:06;;;;;;;5.68;2.70;;;;;;;20.40;63.50;101532.44;4982920;28;20117;-76